Startpagina
METAR-TAF:

METAR-TAF

Vliegvelden :

Nadi, Fiji

Nadi International Airport

breedte: 17-45S, lengte: 177-27E, hoogte: 13 m

Actueel weer

Dit bericht is 8 minuten geleden gemaakt, om 02:00 UTC
Wind 12 kt uit het noordnoordwesten
Temperatuur 29°C
Vochtigheid 70%
Druk 1008 hPa
Zicht 10 km of meer
Weinig wolken op 2000 ft, Cumulonimbus.
Verspreide wolken op 4700 ft
Gebroken wolken op 11000 ft

METAR: NFFN 210200Z 34012KT 9999 FEW020CB SCT047 BKN110 29/23 Q1008 TEMPO 3000 TSRA

Tijdstip: 14:08 (02:08 UTC)

Verwachting

Dit bericht is 3 uur en het 4 minuten geleden gemaakt, om 23:04 UTC
Verwachting geldig van 21 om 00 UTC tot 21 om 24 UTC
Wind 12 kt uit het noordnoordoosten
Zicht 10 km of meer
Verspreide wolken op 2500 ft
Gebroken wolken op 4800 ft
Gebroken wolken op 10000 ft
Kans 40% :
Tijdelijke
van 21 om 00 UTC tot 21 om 03 UTC
Zicht: 5000 m
Gebroken wolken op 1500 ft
regenbuien

TAF: NFFN 202304Z 2100/2124 02012KT 9999 SCT025 BKN048 BKN100 PROB40 TEMPO 2100/2103 5000 SHRA BKN015

Waarnemingen en weersverwachtingen van meer dan 4000 vliegvelden (METAR en TAF).

De beschikbare stations zijn de gele en rode punten op de kaart.

Ga met uw muis naar het station om de naam te zien.

Klik dan om waarnemingen en weersverwachtingen te zien.

kaart wijzigen: klik op de groene knoppen met een zwart kruis om in te zoomen, op de groene knop met een streepje om uit te zoomen of op de groene pijlen voor aangrenzende kaarten.


METAR-TAF: